sensor_id;sensor_type;location;lat;lon;timestamp;temperature;humidity
7016;DHT22;3548;48.402;9.990;2023-04-03T00:01:26;3.20;99.90
7016;DHT22;3548;48.402;9.990;2023-04-03T00:03:52;3.20;99.90
7016;DHT22;3548;48.402;9.990;2023-04-03T00:06:18;3.20;99.90
7016;DHT22;3548;48.402;9.990;2023-04-03T00:08:43;3.20;99.90
7016;DHT22;3548;48.402;9.990;2023-04-03T00:11:10;3.20;99.90
7016;DHT22;3548;48.402;9.990;2023-04-03T00:13:36;3.30;99.90
7016;DHT22;3548;48.402;9.990;2023-04-03T00:16:01;3.20;99.90
7016;DHT22;3548;48.402;9.990;2023-04-03T00:18:28;3.30;99.90
7016;DHT22;3548;48.402;9.990;2023-04-03T00:20:54;3.30;99.90
7016;DHT22;3548;48.402;9.990;2023-04-03T00:23:20;3.30;99.90
7016;DHT22;3548;48.402;9.990;2023-04-03T00:25:45;3.20;99.90
7016;DHT22;3548;48.402;9.990;2023-04-03T00:28:11;3.20;99.90
7016;DHT22;3548;48.402;9.990;2023-04-03T00:30:37;3.20;99.90
7016;DHT22;3548;48.402;9.990;2023-04-03T00:33:02;3.20;99.90
7016;DHT22;3548;48.402;9.990;2023-04-03T00:35:29;3.20;99.90
7016;DHT22;3548;48.402;9.990;2023-04-03T00:37:55;3.20;99.90
7016;DHT22;3548;48.402;9.990;2023-04-03T00:40:23;3.20;99.90
7016;DHT22;3548;48.402;9.990;2023-04-03T00:42:55;3.20;99.90
7016;DHT22;3548;48.402;9.990;2023-04-03T00:45:25;3.20;99.90
7016;DHT22;3548;48.402;9.990;2023-04-03T00:47:51;3.20;99.90
7016;DHT22;3548;48.402;9.990;2023-04-03T00:50:17;3.20;99.90
7016;DHT22;3548;48.402;9.990;2023-04-03T00:52:43;3.20;99.90
7016;DHT22;3548;48.402;9.990;2023-04-03T00:55:12;3.20;99.90
7016;DHT22;3548;48.402;9.990;2023-04-03T00:57:40;3.20;99.90
7016;DHT22;3548;48.402;9.990;2023-04-03T01:00:09;3.20;99.90
7016;DHT22;3548;48.402;9.990;2023-04-03T01:02:35;3.30;99.90
7016;DHT22;3548;48.402;9.990;2023-04-03T01:05:01;3.20;99.90
7016;DHT22;3548;48.402;9.990;2023-04-03T01:07:31;3.20;99.90
7016;DHT22;3548;48.402;9.990;2023-04-03T01:10:01;3.20;99.90
7016;DHT22;3548;48.402;9.990;2023-04-03T01:12:30;3.20;99.90
7016;DHT22;3548;48.402;9.990;2023-04-03T01:15:02;3.20;99.90
7016;DHT22;3548;48.402;9.990;2023-04-03T01:25:35;3.00;99.90
7016;DHT22;3548;48.402;9.990;2023-04-03T01:28:02;3.00;99.90
7016;DHT22;3548;48.402;9.990;2023-04-03T01:30:33;3.00;99.90
7016;DHT22;3548;48.402;9.990;2023-04-03T01:32:59;3.00;99.90
7016;DHT22;3548;48.402;9.990;2023-04-03T01:35:25;2.90;99.90
7016;DHT22;3548;48.402;9.990;2023-04-03T01:37:51;3.00;99.90
7016;DHT22;3548;48.402;9.990;2023-04-03T01:40:17;3.00;99.90
7016;DHT22;3548;48.402;9.990;2023-04-03T01:42:42;3.00;99.90
7016;DHT22;3548;48.402;9.990;2023-04-03T01:45:08;3.00;99.90
7016;DHT22;3548;48.402;9.990;2023-04-03T01:47:34;3.00;99.90
7016;DHT22;3548;48.402;9.990;2023-04-03T01:49:59;3.00;99.90
7016;DHT22;3548;48.402;9.990;2023-04-03T01:52:25;3.00;99.90
7016;DHT22;3548;48.402;9.990;2023-04-03T01:54:51;3.00;99.90
7016;DHT22;3548;48.402;9.990;2023-04-03T01:57:17;3.00;99.90
7016;DHT22;3548;48.402;9.990;2023-04-03T01:59:43;3.00;99.90
7016;DHT22;3548;48.402;9.990;2023-04-03T02:02:09;3.00;99.90
7016;DHT22;3548;48.402;9.990;2023-04-03T02:04:34;3.00;99.90
7016;DHT22;3548;48.402;9.990;2023-04-03T02:07:00;3.00;99.90
7016;DHT22;3548;48.402;9.990;2023-04-03T02:09:26;3.00;99.90
7016;DHT22;3548;48.402;9.990;2023-04-03T02:11:52;3.00;99.90
7016;DHT22;3548;48.402;9.990;2023-04-03T02:14:18;3.00;99.90
7016;DHT22;3548;48.402;9.990;2023-04-03T02:16:44;3.00;99.90
7016;DHT22;3548;48.402;9.990;2023-04-03T02:19:10;2.90;99.90
7016;DHT22;3548;48.402;9.990;2023-04-03T02:21:35;2.90;99.90
7016;DHT22;3548;48.402;9.990;2023-04-03T02:24:01;2.90;99.90
7016;DHT22;3548;48.402;9.990;2023-04-03T02:26:27;3.00;99.90
7016;DHT22;3548;48.402;9.990;2023-04-03T02:28:53;3.00;99.90
7016;DHT22;3548;48.402;9.990;2023-04-03T02:31:18;3.00;99.90
7016;DHT22;3548;48.402;9.990;2023-04-03T02:33:45;2.90;99.90
7016;DHT22;3548;48.402;9.990;2023-04-03T02:36:10;2.90;99.90
7016;DHT22;3548;48.402;9.990;2023-04-03T02:38:36;2.80;99.90
7016;DHT22;3548;48.402;9.990;2023-04-03T02:41:04;2.90;99.90
7016;DHT22;3548;48.402;9.990;2023-04-03T02:43:30;2.90;99.90
7016;DHT22;3548;48.402;9.990;2023-04-03T02:45:55;2.90;99.90
7016;DHT22;3548;48.402;9.990;2023-04-03T02:48:21;2.90;99.90
7016;DHT22;3548;48.402;9.990;2023-04-03T02:50:47;2.90;99.90
7016;DHT22;3548;48.402;9.990;2023-04-03T02:53:13;2.80;99.90
7016;DHT22;3548;48.402;9.990;2023-04-03T02:55:39;2.80;99.90
7016;DHT22;3548;48.402;9.990;2023-04-03T02:58:04;2.80;99.90
7016;DHT22;3548;48.402;9.990;2023-04-03T03:00:30;2.70;99.90
7016;DHT22;3548;48.402;9.990;2023-04-03T03:02:56;2.70;99.90
7016;DHT22;3548;48.402;9.990;2023-04-03T03:05:21;2.70;99.90
7016;DHT22;3548;48.402;9.990;2023-04-03T03:07:47;2.60;99.90
7016;DHT22;3548;48.402;9.990;2023-04-03T03:10:13;2.70;99.90
7016;DHT22;3548;48.402;9.990;2023-04-03T03:12:38;2.60;99.90
7016;DHT22;3548;48.402;9.990;2023-04-03T03:15:06;2.60;99.90
7016;DHT22;3548;48.402;9.990;2023-04-03T03:17:32;2.60;99.90
7016;DHT22;3548;48.402;9.990;2023-04-03T03:19:58;2.60;99.90
7016;DHT22;3548;48.402;9.990;2023-04-03T03:22:23;2.60;99.90
7016;DHT22;3548;48.402;9.990;2023-04-03T03:24:49;2.60;99.90
7016;DHT22;3548;48.402;9.990;2023-04-03T03:27:14;2.70;99.90
7016;DHT22;3548;48.402;9.990;2023-04-03T03:29:41;2.60;99.90
7016;DHT22;3548;48.402;9.990;2023-04-03T03:32:07;2.70;99.90
7016;DHT22;3548;48.402;9.990;2023-04-03T03:34:33;2.70;99.90
7016;DHT22;3548;48.402;9.990;2023-04-03T03:36:58;2.70;99.90
7016;DHT22;3548;48.402;9.990;2023-04-03T03:39:24;2.70;99.90
7016;DHT22;3548;48.402;9.990;2023-04-03T03:41:49;2.70;99.90
7016;DHT22;3548;48.402;9.990;2023-04-03T03:44:15;2.80;99.90
7016;DHT22;3548;48.402;9.990;2023-04-03T03:46:41;2.80;99.90
7016;DHT22;3548;48.402;9.990;2023-04-03T03:49:06;2.70;99.90
7016;DHT22;3548;48.402;9.990;2023-04-03T03:51:32;2.70;99.90
7016;DHT22;3548;48.402;9.990;2023-04-03T03:53:57;2.70;99.90
7016;DHT22;3548;48.402;9.990;2023-04-03T03:56:23;2.80;99.90
7016;DHT22;3548;48.402;9.990;2023-04-03T03:58:48;2.80;99.90
7016;DHT22;3548;48.402;9.990;2023-04-03T04:01:15;2.70;99.90
7016;DHT22;3548;48.402;9.990;2023-04-03T04:03:42;2.80;99.90
7016;DHT22;3548;48.402;9.990;2023-04-03T04:06:08;2.80;99.90
7016;DHT22;3548;48.402;9.990;2023-04-03T04:08:33;2.80;99.90
7016;DHT22;3548;48.402;9.990;2023-04-03T04:10:59;2.80;99.90
7016;DHT22;3548;48.402;9.990;2023-04-03T04:13:25;2.80;99.90
7016;DHT22;3548;48.402;9.990;2023-04-03T04:15:50;2.70;99.90
7016;DHT22;3548;48.402;9.990;2023-04-03T04:18:16;2.80;99.90
7016;DHT22;3548;48.402;9.990;2023-04-03T04:20:45;2.80;99.90
7016;DHT22;3548;48.402;9.990;2023-04-03T04:23:10;2.80;99.90
7016;DHT22;3548;48.402;9.990;2023-04-03T04:25:36;2.70;99.90
7016;DHT22;3548;48.402;9.990;2023-04-03T04:28:01;2.70;99.90
7016;DHT22;3548;48.402;9.990;2023-04-03T04:30:27;2.60;99.90
7016;DHT22;3548;48.402;9.990;2023-04-03T04:32:52;2.60;99.90
7016;DHT22;3548;48.402;9.990;2023-04-03T04:35:18;2.70;99.90
7016;DHT22;3548;48.402;9.990;2023-04-03T04:37:44;2.60;99.90
7016;DHT22;3548;48.402;9.990;2023-04-03T04:40:10;2.60;99.90
7016;DHT22;3548;48.402;9.990;2023-04-03T04:42:35;2.50;99.90
7016;DHT22;3548;48.402;9.990;2023-04-03T04:45:01;2.50;99.90
7016;DHT22;3548;48.402;9.990;2023-04-03T04:47:28;2.50;99.90
7016;DHT22;3548;48.402;9.990;2023-04-03T04:49:54;2.50;99.90
7016;DHT22;3548;48.402;9.990;2023-04-03T04:52:20;2.40;99.90
7016;DHT22;3548;48.402;9.990;2023-04-03T04:54:45;2.50;99.90
7016;DHT22;3548;48.402;9.990;2023-04-03T04:57:11;2.50;99.90
7016;DHT22;3548;48.402;9.990;2023-04-03T04:59:37;2.50;99.90
7016;DHT22;3548;48.402;9.990;2023-04-03T05:02:02;2.50;99.90
7016;DHT22;3548;48.402;9.990;2023-04-03T05:04:28;2.50;99.90
7016;DHT22;3548;48.402;9.990;2023-04-03T05:06:53;2.50;99.90
7016;DHT22;3548;48.402;9.990;2023-04-03T05:09:19;2.40;99.90
7016;DHT22;3548;48.402;9.990;2023-04-03T05:11:45;2.50;99.90
7016;DHT22;3548;48.402;9.990;2023-04-03T05:14:11;2.60;99.90
7016;DHT22;3548;48.402;9.990;2023-04-03T05:16:37;2.50;99.90
7016;DHT22;3548;48.402;9.990;2023-04-03T05:19:03;2.60;99.90
7016;DHT22;3548;48.402;9.990;2023-04-03T05:21:29;2.50;99.90
7016;DHT22;3548;48.402;9.990;2023-04-03T05:23:58;2.50;99.90
7016;DHT22;3548;48.402;9.990;2023-04-03T05:26:24;2.50;99.90
7016;DHT22;3548;48.402;9.990;2023-04-03T05:28:50;2.60;99.90
7016;DHT22;3548;48.402;9.990;2023-04-03T05:31:16;2.60;99.90
7016;DHT22;3548;48.402;9.990;2023-04-03T05:33:42;2.60;99.90
7016;DHT22;3548;48.402;9.990;2023-04-03T05:36:07;2.60;99.90
7016;DHT22;3548;48.402;9.990;2023-04-03T05:38:33;2.60;99.90
7016;DHT22;3548;48.402;9.990;2023-04-03T05:40:59;2.60;99.90
7016;DHT22;3548;48.402;9.990;2023-04-03T05:43:25;2.60;99.90
7016;DHT22;3548;48.402;9.990;2023-04-03T05:45:51;2.60;99.90
7016;DHT22;3548;48.402;9.990;2023-04-03T05:48:17;2.70;99.90
7016;DHT22;3548;48.402;9.990;2023-04-03T05:50:43;2.70;99.90
7016;DHT22;3548;48.402;9.990;2023-04-03T05:53:18;2.70;99.90
7016;DHT22;3548;48.402;9.990;2023-04-03T05:55:44;2.60;99.90
7016;DHT22;3548;48.402;9.990;2023-04-03T05:58:11;2.40;99.90
7016;DHT22;3548;48.402;9.990;2023-04-03T06:00:36;2.40;99.90
7016;DHT22;3548;48.402;9.990;2023-04-03T06:03:02;2.40;99.90
7016;DHT22;3548;48.402;9.990;2023-04-03T06:05:28;2.40;99.90
7016;DHT22;3548;48.402;9.990;2023-04-03T06:07:54;2.40;99.90
7016;DHT22;3548;48.402;9.990;2023-04-03T06:10:19;2.40;99.90
7016;DHT22;3548;48.402;9.990;2023-04-03T06:12:45;2.50;99.90
7016;DHT22;3548;48.402;9.990;2023-04-03T06:15:11;2.40;99.90
7016;DHT22;3548;48.402;9.990;2023-04-03T06:17:37;2.50;99.90
7016;DHT22;3548;48.402;9.990;2023-04-03T06:20:03;2.50;99.90
7016;DHT22;3548;48.402;9.990;2023-04-03T06:22:29;2.40;99.90
7016;DHT22;3548;48.402;9.990;2023-04-03T06:24:56;2.40;99.90
7016;DHT22;3548;48.402;9.990;2023-04-03T06:27:22;2.40;99.90
7016;DHT22;3548;48.402;9.990;2023-04-03T06:29:48;2.40;99.90
7016;DHT22;3548;48.402;9.990;2023-04-03T06:32:14;2.30;99.90
7016;DHT22;3548;48.402;9.990;2023-04-03T06:34:40;2.20;99.90
7016;DHT22;3548;48.402;9.990;2023-04-03T06:37:10;2.30;99.90
7016;DHT22;3548;48.402;9.990;2023-04-03T06:39:36;2.30;99.90
7016;DHT22;3548;48.402;9.990;2023-04-03T06:42:01;2.30;99.90
7016;DHT22;3548;48.402;9.990;2023-04-03T06:44:27;2.40;99.90
7016;DHT22;3548;48.402;9.990;2023-04-03T06:46:52;2.40;99.90
7016;DHT22;3548;48.402;9.990;2023-04-03T06:49:19;2.40;99.90
7016;DHT22;3548;48.402;9.990;2023-04-03T06:51:45;2.30;99.90
7016;DHT22;3548;48.402;9.990;2023-04-03T06:54:10;2.30;99.90
7016;DHT22;3548;48.402;9.990;2023-04-03T06:56:36;2.30;99.90
7016;DHT22;3548;48.402;9.990;2023-04-03T06:59:03;2.40;99.90
7016;DHT22;3548;48.402;9.990;2023-04-03T07:01:29;2.50;99.90
7016;DHT22;3548;48.402;9.990;2023-04-03T07:03:55;2.50;99.90
7016;DHT22;3548;48.402;9.990;2023-04-03T07:06:21;2.50;99.90
7016;DHT22;3548;48.402;9.990;2023-04-03T07:08:47;2.50;99.90
7016;DHT22;3548;48.402;9.990;2023-04-03T07:11:14;2.60;99.90
7016;DHT22;3548;48.402;9.990;2023-04-03T07:13:40;2.60;99.90
7016;DHT22;3548;48.402;9.990;2023-04-03T07:16:07;2.70;99.90
7016;DHT22;3548;48.402;9.990;2023-04-03T07:18:34;2.70;99.90
7016;DHT22;3548;48.402;9.990;2023-04-03T07:21:00;2.70;99.90
7016;DHT22;3548;48.402;9.990;2023-04-03T07:23:25;2.70;99.90
7016;DHT22;3548;48.402;9.990;2023-04-03T07:25:52;2.70;99.90
7016;DHT22;3548;48.402;9.990;2023-04-03T07:28:18;2.80;99.90
7016;DHT22;3548;48.402;9.990;2023-04-03T07:30:50;2.80;99.90
7016;DHT22;3548;48.402;9.990;2023-04-03T07:33:17;2.80;99.90
7016;DHT22;3548;48.402;9.990;2023-04-03T07:35:44;2.80;99.90
7016;DHT22;3548;48.402;9.990;2023-04-03T07:38:11;2.90;99.90
7016;DHT22;3548;48.402;9.990;2023-04-03T07:40:37;2.90;99.90
7016;DHT22;3548;48.402;9.990;2023-04-03T07:43:03;3.00;99.90
7016;DHT22;3548;48.402;9.990;2023-04-03T07:45:29;3.00;99.90
7016;DHT22;3548;48.402;9.990;2023-04-03T07:47:55;3.10;99.90
7016;DHT22;3548;48.402;9.990;2023-04-03T07:50:21;3.00;99.90
7016;DHT22;3548;48.402;9.990;2023-04-03T07:52:47;3.10;99.90
7016;DHT22;3548;48.402;9.990;2023-04-03T07:55:12;3.20;99.90
7016;DHT22;3548;48.402;9.990;2023-04-03T07:57:38;3.20;99.90
7016;DHT22;3548;48.402;9.990;2023-04-03T08:00:04;3.20;99.90
7016;DHT22;3548;48.402;9.990;2023-04-03T08:02:31;3.30;99.90
7016;DHT22;3548;48.402;9.990;2023-04-03T08:04:58;3.40;99.90
7016;DHT22;3548;48.402;9.990;2023-04-03T08:07:25;3.50;99.90
7016;DHT22;3548;48.402;9.990;2023-04-03T08:09:51;3.40;99.90
7016;DHT22;3548;48.402;9.990;2023-04-03T08:12:17;3.40;99.90
7016;DHT22;3548;48.402;9.990;2023-04-03T08:14:43;3.50;99.90
7016;DHT22;3548;48.402;9.990;2023-04-03T08:17:09;3.60;99.90
7016;DHT22;3548;48.402;9.990;2023-04-03T08:19:38;3.80;99.90
7016;DHT22;3548;48.402;9.990;2023-04-03T08:22:04;3.90;99.90
7016;DHT22;3548;48.402;9.990;2023-04-03T08:24:31;3.90;99.90
7016;DHT22;3548;48.402;9.990;2023-04-03T08:26:57;3.90;99.90
7016;DHT22;3548;48.402;9.990;2023-04-03T08:29:24;3.80;99.90
7016;DHT22;3548;48.402;9.990;2023-04-03T08:31:50;3.90;99.90
7016;DHT22;3548;48.402;9.990;2023-04-03T08:34:16;3.90;99.90
7016;DHT22;3548;48.402;9.990;2023-04-03T08:36:42;3.90;99.90
7016;DHT22;3548;48.402;9.990;2023-04-03T08:39:08;3.90;99.90
7016;DHT22;3548;48.402;9.990;2023-04-03T08:49:39;4.00;99.90
7016;DHT22;3548;48.402;9.990;2023-04-03T08:52:17;4.00;99.90
7016;DHT22;3548;48.402;9.990;2023-04-03T08:54:55;4.00;99.90
7016;DHT22;3548;48.402;9.990;2023-04-03T08:57:35;4.00;99.90
7016;DHT22;3548;48.402;9.990;2023-04-03T09:00:25;4.10;99.90
7016;DHT22;3548;48.402;9.990;2023-04-03T09:02:54;4.10;99.90
7016;DHT22;3548;48.402;9.990;2023-04-03T09:05:39;4.00;99.90
7016;DHT22;3548;48.402;9.990;2023-04-03T09:08:37;4.10;99.90
7016;DHT22;3548;48.402;9.990;2023-04-03T09:11:33;4.20;99.90
7016;DHT22;3548;48.402;9.990;2023-04-03T09:14:13;4.30;99.90
7016;DHT22;3548;48.402;9.990;2023-04-03T09:22:13;4.60;99.90
7016;DHT22;3548;48.402;9.990;2023-04-03T09:24:43;4.60;99.90
7016;DHT22;3548;48.402;9.990;2023-04-03T09:27:10;4.70;99.90
7016;DHT22;3548;48.402;9.990;2023-04-03T09:29:40;4.80;99.90
7016;DHT22;3548;48.402;9.990;2023-04-03T09:32:29;4.90;99.90
7016;DHT22;3548;48.402;9.990;2023-04-03T09:34:59;4.90;99.90
7016;DHT22;3548;48.402;9.990;2023-04-03T09:37:37;4.90;99.90
7016;DHT22;3548;48.402;9.990;2023-04-03T09:40:04;4.80;99.90
7016;DHT22;3548;48.402;9.990;2023-04-03T09:42:30;4.60;99.90
7016;DHT22;3548;48.402;9.990;2023-04-03T09:45:03;4.50;99.90
7016;DHT22;3548;48.402;9.990;2023-04-03T09:47:34;4.40;99.90
7016;DHT22;3548;48.402;9.990;2023-04-03T09:52:40;4.20;99.90
7016;DHT22;3548;48.402;9.990;2023-04-03T09:55:16;4.10;99.90
7016;DHT22;3548;48.402;9.990;2023-04-03T09:57:43;4.10;99.90
7016;DHT22;3548;48.402;9.990;2023-04-03T10:00:24;3.90;99.90
7016;DHT22;3548;48.402;9.990;2023-04-03T10:02:55;3.90;99.90
7016;DHT22;3548;48.402;9.990;2023-04-03T10:10:43;4.30;99.90
7016;DHT22;3548;48.402;9.990;2023-04-03T10:13:18;4.40;99.90
7016;DHT22;3548;48.402;9.990;2023-04-03T10:15:55;4.50;99.90
7016;DHT22;3548;48.402;9.990;2023-04-03T10:18:47;4.60;99.90
7016;DHT22;3548;48.402;9.990;2023-04-03T10:21:46;4.60;99.90
7016;DHT22;3548;48.402;9.990;2023-04-03T10:24:23;4.70;99.90
7016;DHT22;3548;48.402;9.990;2023-04-03T10:27:13;4.70;99.90
7016;DHT22;3548;48.402;9.990;2023-04-03T10:30:18;4.70;99.90
7016;DHT22;3548;48.402;9.990;2023-04-03T10:32:57;4.70;99.90
7016;DHT22;3548;48.402;9.990;2023-04-03T10:43:17;5.00;99.50
7016;DHT22;3548;48.402;9.990;2023-04-03T10:48:38;5.10;98.20
7016;DHT22;3548;48.402;9.990;2023-04-03T10:51:24;5.00;98.40
7016;DHT22;3548;48.402;9.990;2023-04-03T10:54:20;5.00;98.50
7016;DHT22;3548;48.402;9.990;2023-04-03T10:56:56;4.90;98.90
7016;DHT22;3548;48.402;9.990;2023-04-03T10:59:37;4.80;98.90
7016;DHT22;3548;48.402;9.990;2023-04-03T11:04:49;4.70;99.90
7016;DHT22;3548;48.402;9.990;2023-04-03T11:07:26;4.70;99.90
7016;DHT22;3548;48.402;9.990;2023-04-03T11:10:03;4.70;99.90
7016;DHT22;3548;48.402;9.990;2023-04-03T11:15:38;4.90;99.90
7016;DHT22;3548;48.402;9.990;2023-04-03T11:18:11;5.00;99.90
7016;DHT22;3548;48.402;9.990;2023-04-03T11:20:38;4.80;99.90
7016;DHT22;3548;48.402;9.990;2023-04-03T11:23:22;4.80;99.90
7016;DHT22;3548;48.402;9.990;2023-04-03T11:25:53;4.60;99.90
7016;DHT22;3548;48.402;9.990;2023-04-03T11:28:20;4.70;99.90
7016;DHT22;3548;48.402;9.990;2023-04-03T11:33:58;4.90;99.90
7016;DHT22;3548;48.402;9.990;2023-04-03T11:36:31;4.90;99.90
7016;DHT22;3548;48.402;9.990;2023-04-03T11:41:52;4.90;99.90
7016;DHT22;3548;48.402;9.990;2023-04-03T11:44:34;5.10;99.90
7016;DHT22;3548;48.402;9.990;2023-04-03T11:47:03;5.30;99.80
7016;DHT22;3548;48.402;9.990;2023-04-03T11:50:01;5.40;99.90
7016;DHT22;3548;48.402;9.990;2023-04-03T11:58:35;5.40;99.90
7016;DHT22;3548;48.402;9.990;2023-04-03T12:01:07;5.40;99.90
7016;DHT22;3548;48.402;9.990;2023-04-03T12:21:15;5.00;99.90
7016;DHT22;3548;48.402;9.990;2023-04-03T12:29:10;5.10;99.90
7016;DHT22;3548;48.402;9.990;2023-04-03T12:31:52;5.00;99.10
7016;DHT22;3548;48.402;9.990;2023-04-03T12:37:22;4.80;99.60
7016;DHT22;3548;48.402;9.990;2023-04-03T12:45:46;4.90;99.70
7016;DHT22;3548;48.402;9.990;2023-04-03T12:48:20;4.90;99.70
7016;DHT22;3548;48.402;9.990;2023-04-03T12:50:49;5.00;99.00
7016;DHT22;3548;48.402;9.990;2023-04-03T12:53:22;4.90;99.40
7016;DHT22;3548;48.402;9.990;2023-04-03T12:55:57;5.10;99.80
7016;DHT22;3548;48.402;9.990;2023-04-03T12:58:42;4.80;99.10
7016;DHT22;3548;48.402;9.990;2023-04-03T13:01:14;5.00;99.40
7016;DHT22;3548;48.402;9.990;2023-04-03T13:03:45;4.90;98.60
7016;DHT22;3548;48.402;9.990;2023-04-03T13:06:19;4.70;98.60
7016;DHT22;3548;48.402;9.990;2023-04-03T13:08:55;4.80;98.80
7016;DHT22;3548;48.402;9.990;2023-04-03T13:11:23;5.00;99.00
7016;DHT22;3548;48.402;9.990;2023-04-03T13:14:02;5.10;99.30
7016;DHT22;3548;48.402;9.990;2023-04-03T13:16:31;5.30;99.10
7016;DHT22;3548;48.402;9.990;2023-04-03T13:18:58;5.30;97.20
7016;DHT22;3548;48.402;9.990;2023-04-03T13:21:28;5.30;97.50
7016;DHT22;3548;48.402;9.990;2023-04-03T13:23:58;5.30;96.90
7016;DHT22;3548;48.402;9.990;2023-04-03T13:26:29;5.30;96.40
7016;DHT22;3548;48.402;9.990;2023-04-03T13:29:00;5.30;96.80
7016;DHT22;3548;48.402;9.990;2023-04-03T13:31:35;5.20;96.20
7016;DHT22;3548;48.402;9.990;2023-04-03T13:34:17;5.00;96.50
7016;DHT22;3548;48.402;9.990;2023-04-03T13:36:57;5.00;97.00
7016;DHT22;3548;48.402;9.990;2023-04-03T13:39:29;5.30;97.10
7016;DHT22;3548;48.402;9.990;2023-04-03T13:42:25;5.40;96.40
7016;DHT22;3548;48.402;9.990;2023-04-03T13:47:41;5.80;96.00
7016;DHT22;3548;48.402;9.990;2023-04-03T13:50:24;5.70;96.50
7016;DHT22;3548;48.402;9.990;2023-04-03T13:53:03;5.70;96.50
7016;DHT22;3548;48.402;9.990;2023-04-03T13:55:34;5.80;96.00
7016;DHT22;3548;48.402;9.990;2023-04-03T14:00:53;5.80;95.40
7016;DHT22;3548;48.402;9.990;2023-04-03T14:03:25;5.40;96.00
7016;DHT22;3548;48.402;9.990;2023-04-03T14:05:52;5.40;95.90
7016;DHT22;3548;48.402;9.990;2023-04-03T14:08:19;5.50;95.90
7016;DHT22;3548;48.402;9.990;2023-04-03T14:10:45;5.70;95.50
7016;DHT22;3548;48.402;9.990;2023-04-03T14:13:17;6.10;94.40
7016;DHT22;3548;48.402;9.990;2023-04-03T14:15:44;6.50;93.90
7016;DHT22;3548;48.402;9.990;2023-04-03T14:18:15;6.90;93.50
7016;DHT22;3548;48.402;9.990;2023-04-03T14:20:41;7.20;92.70
7016;DHT22;3548;48.402;9.990;2023-04-03T14:23:07;6.90;91.60
7016;DHT22;3548;48.402;9.990;2023-04-03T14:25:33;6.60;91.50
7016;DHT22;3548;48.402;9.990;2023-04-03T14:27:59;6.30;91.70
7016;DHT22;3548;48.402;9.990;2023-04-03T14:30:26;6.10;91.50
7016;DHT22;3548;48.402;9.990;2023-04-03T14:32:53;6.00;91.90
7016;DHT22;3548;48.402;9.990;2023-04-03T14:35:20;5.90;92.50
7016;DHT22;3548;48.402;9.990;2023-04-03T14:37:47;5.80;92.80
7016;DHT22;3548;48.402;9.990;2023-04-03T14:40:17;5.80;92.50
7016;DHT22;3548;48.402;9.990;2023-04-03T14:42:43;5.80;92.80
7016;DHT22;3548;48.402;9.990;2023-04-03T14:45:11;6.10;93.20
7016;DHT22;3548;48.402;9.990;2023-04-03T14:47:49;6.20;92.00
7016;DHT22;3548;48.402;9.990;2023-04-03T14:50:22;6.20;91.90
7016;DHT22;3548;48.402;9.990;2023-04-03T14:52:50;6.10;91.80
7016;DHT22;3548;48.402;9.990;2023-04-03T14:55:18;6.10;91.90
7016;DHT22;3548;48.402;9.990;2023-04-03T14:57:45;5.80;92.30
7016;DHT22;3548;48.402;9.990;2023-04-03T15:00:16;5.70;92.70
7016;DHT22;3548;48.402;9.990;2023-04-03T15:02:42;5.60;92.30
7016;DHT22;3548;48.402;9.990;2023-04-03T15:05:10;5.40;92.40
7016;DHT22;3548;48.402;9.990;2023-04-03T15:07:44;5.40;93.10
7016;DHT22;3548;48.402;9.990;2023-04-03T15:10:19;5.40;92.90
7016;DHT22;3548;48.402;9.990;2023-04-03T15:12:45;5.40;92.80
7016;DHT22;3548;48.402;9.990;2023-04-03T15:15:14;5.50;92.30
7016;DHT22;3548;48.402;9.990;2023-04-03T15:17:41;5.60;91.80
7016;DHT22;3548;48.402;9.990;2023-04-03T15:20:15;5.60;91.80
7016;DHT22;3548;48.402;9.990;2023-04-03T15:22:42;5.60;91.80
7016;DHT22;3548;48.402;9.990;2023-04-03T15:25:08;5.60;91.20
7016;DHT22;3548;48.402;9.990;2023-04-03T15:27:34;5.60;91.10
7016;DHT22;3548;48.402;9.990;2023-04-03T15:30:00;5.50;91.20
7016;DHT22;3548;48.402;9.990;2023-04-03T15:32:26;5.60;90.90
7016;DHT22;3548;48.402;9.990;2023-04-03T15:34:51;5.70;90.40
7016;DHT22;3548;48.402;9.990;2023-04-03T15:37:18;5.70;90.40
7016;DHT22;3548;48.402;9.990;2023-04-03T15:39:44;5.80;89.70
7016;DHT22;3548;48.402;9.990;2023-04-03T15:42:10;5.80;88.70
7016;DHT22;3548;48.402;9.990;2023-04-03T15:44:38;5.90;87.90
7016;DHT22;3548;48.402;9.990;2023-04-03T15:47:03;5.90;87.40
7016;DHT22;3548;48.402;9.990;2023-04-03T15:49:29;6.00;87.60
7016;DHT22;3548;48.402;9.990;2023-04-03T15:51:56;6.10;87.40
7016;DHT22;3548;48.402;9.990;2023-04-03T15:54:21;6.20;87.20
7016;DHT22;3548;48.402;9.990;2023-04-03T15:56:49;6.20;87.70
7016;DHT22;3548;48.402;9.990;2023-04-03T15:59:15;6.10;87.20
7016;DHT22;3548;48.402;9.990;2023-04-03T16:01:40;6.00;87.00
7016;DHT22;3548;48.402;9.990;2023-04-03T16:04:08;5.80;86.20
7016;DHT22;3548;48.402;9.990;2023-04-03T16:06:35;5.60;86.70
7016;DHT22;3548;48.402;9.990;2023-04-03T16:09:01;5.60;86.70
7016;DHT22;3548;48.402;9.990;2023-04-03T16:11:28;5.60;85.00
7016;DHT22;3548;48.402;9.990;2023-04-03T16:13:54;5.60;84.30
7016;DHT22;3548;48.402;9.990;2023-04-03T16:16:21;5.50;83.40
7016;DHT22;3548;48.402;9.990;2023-04-03T16:18:47;5.40;84.80
7016;DHT22;3548;48.402;9.990;2023-04-03T16:21:14;5.40;84.10
7016;DHT22;3548;48.402;9.990;2023-04-03T16:23:41;5.40;82.70
7016;DHT22;3548;48.402;9.990;2023-04-03T16:26:07;5.40;82.80
7016;DHT22;3548;48.402;9.990;2023-04-03T16:28:32;5.40;83.80
7016;DHT22;3548;48.402;9.990;2023-04-03T16:31:00;5.40;84.30
7016;DHT22;3548;48.402;9.990;2023-04-03T16:33:27;5.30;84.60
7016;DHT22;3548;48.402;9.990;2023-04-03T16:35:52;5.30;84.70
7016;DHT22;3548;48.402;9.990;2023-04-03T16:38:19;5.30;85.00
7016;DHT22;3548;48.402;9.990;2023-04-03T16:40:45;5.40;84.80
7016;DHT22;3548;48.402;9.990;2023-04-03T16:43:11;5.50;84.90
7016;DHT22;3548;48.402;9.990;2023-04-03T16:45:37;5.40;84.50
7016;DHT22;3548;48.402;9.990;2023-04-03T16:48:03;5.40;85.30
7016;DHT22;3548;48.402;9.990;2023-04-03T16:50:28;5.30;85.70
7016;DHT22;3548;48.402;9.990;2023-04-03T16:52:54;5.20;85.80
7016;DHT22;3548;48.402;9.990;2023-04-03T16:55:20;5.10;86.00
7016;DHT22;3548;48.402;9.990;2023-04-03T16:57:46;5.10;86.20
7016;DHT22;3548;48.402;9.990;2023-04-03T17:00:12;5.10;87.10
7016;DHT22;3548;48.402;9.990;2023-04-03T17:02:39;5.10;86.90
7016;DHT22;3548;48.402;9.990;2023-04-03T17:05:05;5.00;86.20
7016;DHT22;3548;48.402;9.990;2023-04-03T17:07:31;5.00;86.90
7016;DHT22;3548;48.402;9.990;2023-04-03T17:09:57;5.00;87.00
7016;DHT22;3548;48.402;9.990;2023-04-03T17:12:23;5.00;87.70
7016;DHT22;3548;48.402;9.990;2023-04-03T17:14:49;5.10;84.80
7016;DHT22;3548;48.402;9.990;2023-04-03T17:17:15;5.10;83.60
7016;DHT22;3548;48.402;9.990;2023-04-03T17:19:44;5.10;83.40
7016;DHT22;3548;48.402;9.990;2023-04-03T17:22:10;5.10;84.20
7016;DHT22;3548;48.402;9.990;2023-04-03T17:24:35;5.10;83.70
7016;DHT22;3548;48.402;9.990;2023-04-03T17:27:02;5.10;84.30
7016;DHT22;3548;48.402;9.990;2023-04-03T17:29:29;5.00;84.50
7016;DHT22;3548;48.402;9.990;2023-04-03T17:31:54;5.00;83.40
7016;DHT22;3548;48.402;9.990;2023-04-03T17:34:20;5.00;83.60
7016;DHT22;3548;48.402;9.990;2023-04-03T17:36:46;5.00;83.70
7016;DHT22;3548;48.402;9.990;2023-04-03T17:39:12;4.90;84.00
7016;DHT22;3548;48.402;9.990;2023-04-03T17:41:38;4.90;85.10
7016;DHT22;3548;48.402;9.990;2023-04-03T17:44:04;4.80;83.70
7016;DHT22;3548;48.402;9.990;2023-04-03T17:46:29;4.80;84.20
7016;DHT22;3548;48.402;9.990;2023-04-03T17:48:55;4.70;84.90
7016;DHT22;3548;48.402;9.990;2023-04-03T17:51:24;4.70;85.10
7016;DHT22;3548;48.402;9.990;2023-04-03T17:53:50;4.70;84.90
7016;DHT22;3548;48.402;9.990;2023-04-03T17:56:24;4.60;86.20
7016;DHT22;3548;48.402;9.990;2023-04-03T17:58:52;4.60;85.60
7016;DHT22;3548;48.402;9.990;2023-04-03T18:01:24;4.60;86.30